Latest Weather Observations for Hay Point

IDQ60801

Issued at 10:32 pm EST Monday 22 December 2014 (issued every 30 minutes, with the page automatically refreshed every 10 minutes)

About weather observations | Map of weather stations | Latest weather observations for QLD | Other Formats
Station Details ID: 033317 Name: HAY POINT Lat: -21.29 Lon: 149.30 Height: 7.0 m
Data from the previous 72 hours. | See also: Recent months for locations in Queensland
Date/Time
EST
Temp
°C
App
Temp
°C
Dew
Point
Rel
Hum
%
Delta-T
°C
Wind Press
QNH
hPa
Press
MSL
hPa
Rain
since 9 am
mm
Dir
 
Spd
km/h
Gust
km/h
Spd
kts
Gust
kts
22/10:30pm - - - - - ESE 30 37 16 20 - - -
22/10:00pm - - - - - ESE 30 37 16 20 - - -
22/09:30pm - - - - - ESE 33 37 18 20 - - -
22/09:00pm - - - - - ESE 28 33 15 18 - - -
22/08:30pm - - - - - E 32 37 17 20 - - -
22/08:00pm - - - - - ESE 28 33 15 18 - - -
22/07:30pm - - - - - ESE 28 33 15 18 - - -
22/07:00pm - - - - - E 28 33 15 18 - - -
22/06:30pm - - - - - E 28 33 15 18 - - -
22/06:00pm - - - - - ESE 30 37 16 20 - - -
22/05:30pm - - - - - E 32 35 17 19 - - -
22/05:00pm - - - - - ESE 32 39 17 21 - - -
22/04:30pm - - - - - ESE 28 33 15 18 - - -
22/04:00pm - - - - - ESE 30 35 16 19 - - -
22/03:30pm - - - - - ESE 32 37 17 20 - - -
22/03:00pm - - - - - ESE 30 37 16 20 - - -
22/02:30pm - - - - - ESE 28 37 15 20 - - -
22/02:00pm - - - - - ESE 28 35 15 19 - - -
22/01:30pm - - - - - SE 28 37 15 20 - - -
22/01:00pm - - - - - ESE 32 37 17 20 - - -
22/12:30pm - - - - - ESE 32 37 17 20 - - -
22/12:00pm - - - - - ESE 30 37 16 20 - - -
22/11:30am - - - - - SE 32 37 17 20 - - -
22/11:00am - - - - - SE 30 37 16 20 - - -
22/10:30am - - - - - SE 28 35 15 19 - - -
22/10:00am - - - - - ESE 28 33 15 18 - - -
22/09:30am - - - - - ESE 28 32 15 17 - - -
22/09:00am - - - - - E 26 30 14 16 - - -
22/08:30am - - - - - E 24 28 13 15 - - -
22/08:00am - - - - - E 26 32 14 17 - - -
22/07:30am - - - - - E 26 30 14 16 - - -
22/07:00am - - - - - E 30 35 16 19 - - -
22/06:30am - - - - - E 26 32 14 17 - - -
22/06:00am - - - - - E 24 30 13 16 - - -
22/05:30am - - - - - E 32 37 17 20 - - -
22/05:00am - - - - - E 26 32 14 17 - - -
22/04:30am - - - - - ENE 30 33 16 18 - - -
22/04:00am - - - - - E 28 32 15 17 - - -
22/03:30am - - - - - E 28 32 15 17 - - -
22/03:00am - - - - - E 28 32 15 17 - - -
22/02:30am - - - - - ENE 28 32 15 17 - - -
22/02:00am - - - - - E 28 32 15 17 - - -
22/01:30am - - - - - E 28 32 15 17 - - -
22/01:00am - - - - - E 28 33 15 18 - - -
22/12:30am - - - - - E 28 32 15 17 - - -
22/12:00am - - - - - E 28 33 15 18 - - -
 
Date/Time
EST
Temp
°C
App
Temp
°C
Dew
Point
Rel
Hum
%
Delta-T
°C
Wind Press
QNH
hPa
Press
MSL
hPa
Rain
since 9 am
mm
Dir
 
Spd
km/h
Gust
km/h
Spd
kts
Gust
kts
21/11:30pm - - - - - E 28 32 15 17 - - -
21/11:00pm - - - - - ENE 28 32 15 17 - - -
21/10:30pm - - - - - E 26 33 14 18 - - -
21/10:00pm - - - - - E 28 33 15 18 - - -
21/09:30pm - - - - - E 26 32 14 17 - - -
21/09:00pm - - - - - E 28 32 15 17 - - -
21/08:30pm - - - - - E 28 33 15 18 - - -
21/08:00pm - - - - - E 26 32 14 17 - - -
21/07:30pm - - - - - E 28 32 15 17 - - -
21/07:00pm - - - - - ESE 28 33 15 18 - - -
21/06:30pm - - - - - E 28 33 15 18 - - -
21/06:00pm - - - - - E 30 35 16 19 - - -
21/05:30pm - - - - - E 28 33 15 18 - - -
21/05:00pm - - - - - E 28 32 15 17 - - -
21/04:30pm - - - - - E 28 33 15 18 - - -
21/04:00pm - - - - - ESE 28 33 15 18 - - -
21/03:30pm - - - - - ESE 28 35 15 19 - - -
21/03:00pm - - - - - SE 28 33 15 18 - - -
21/02:30pm - - - - - ESE 30 35 16 19 - - -
21/02:00pm - - - - - ESE 28 33 15 18 - - -
21/01:30pm - - - - - ESE 24 30 13 16 - - -
21/01:00pm - - - - - ESE 26 35 14 19 - - -
21/12:30pm - - - - - ESE 26 30 14 16 - - -
21/12:00pm - - - - - ESE 22 26 12 14 - - -
21/11:30am - - - - - ESE 22 28 12 15 - - -
21/11:00am - - - - - ESE 22 26 12 14 - - -
21/10:30am - - - - - E 20 24 11 13 - - -
21/10:00am - - - - - E 22 28 12 15 - - -
21/09:30am - - - - - E 20 26 11 14 - - -
21/09:00am - - - - - E 19 24 10 13 - - -
21/08:30am - - - - - ENE 19 26 10 14 - - -
21/08:00am - - - - - ENE 20 24 11 13 - - -
21/07:30am - - - - - ENE 22 28 12 15 - - -
21/07:00am - - - - - ENE 26 30 14 16 - - -
21/06:30am - - - - - E 26 32 14 17 - - -
21/06:00am - - - - - E 28 32 15 17 - - -
21/05:30am - - - - - E 24 30 13 16 - - -
21/05:00am - - - - - ENE 26 33 14 18 - - -
21/04:30am - - - - - E 24 28 13 15 - - -
21/04:00am - - - - - E 24 30 13 16 - - -
21/03:30am - - - - - ENE 26 30 14 16 - - -
21/03:00am - - - - - ENE 20 26 11 14 - - -
21/02:30am - - - - - ENE 22 28 12 15 - - -
21/02:00am - - - - - ENE 22 30 12 16 - - -
21/01:30am - - - - - E 22 30 12 16 - - -
21/01:00am - - - - - ENE 24 28 13 15 - - -
21/12:30am - - - - - ENE 24 30 13 16 - - -
21/12:00am - - - - - ENE 24 28 13 15 - - -
 
Date/Time
EST
Temp
°C
App
Temp
°C
Dew
Point
Rel
Hum
%
Delta-T
°C
Wind Press
QNH
hPa
Press
MSL
hPa
Rain
since 9 am
mm
Dir
 
Spd
km/h
Gust
km/h
Spd
kts
Gust
kts
20/11:30pm - - - - - E 22 28 12 15 - - -
20/11:00pm - - - - - E 22 28 12 15 - - -
20/10:30pm - - - - - E 24 28 13 15 - - -
20/10:00pm - - - - - ESE 26 30 14 16 - - -
20/09:30pm - - - - - E 26 30 14 16 - - -
20/09:00pm - - - - - E 26 30 14 16 - - -
20/08:30pm - - - - - E 26 30 14 16 - - -
20/08:00pm - - - - - E 26 32 14 17 - - -
20/07:30pm - - - - - E 28 33 15 18 - - -
20/07:00pm - - - - - E 28 33 15 18 - - -
20/06:30pm - - - - - ESE 24 30 13 16 - - -
20/06:00pm - - - - - ESE 26 32 14 17 - - -
20/05:30pm - - - - - ESE 26 32 14 17 - - -
20/05:00pm - - - - - ESE 26 32 14 17 - - -
20/04:30pm - - - - - ESE 24 30 13 16 - - -
20/04:00pm - - - - - ESE 24 30 13 16 - - -
20/03:30pm - - - - - SE 17 26 9 14 - - -
20/03:00pm - - - - - ESE 22 28 12 15 - - -
20/02:30pm - - - - - SE 20 26 11 14 - - -
20/02:00pm - - - - - ESE 24 30 13 16 - - -
20/01:30pm - - - - - ESE 19 26 10 14 - - -
20/01:00pm - - - - - ESE 17 20 9 11 - - -
20/12:30pm - - - - - ESE 11 15 6 8 - - -
20/12:00pm - - - - - ESE 13 17 7 9 - - -
20/11:30am - - - - - SE 13 15 7 8 - - -
20/11:00am - - - - - E 9 13 5 7 - - -
20/10:30am - - - - - ESE 9 13 5 7 - - -
20/10:00am - - - - - SE 11 15 6 8 - - -
20/09:30am - - - - - SE 9 13 5 7 - - -
20/09:00am - - - - - SSE 11 15 6 8 - - -
20/08:30am - - - - - SE 11 15 6 8 - - -
20/08:00am - - - - - S 13 19 7 10 - - -
20/07:30am - - - - - S 13 15 7 8 - - -
20/07:00am - - - - - SSW 11 15 6 8 - - -
20/06:30am - - - - - SSW 9 13 5 7 - - -
20/06:00am - - - - - SW 9 13 5 7 - - -
20/05:30am - - - - - SW 13 13 7 7 - - -
20/05:00am - - - - - SSW 13 15 7 8 - - -
20/04:30am - - - - - SW 13 13 7 7 - - -
20/04:00am - - - - - SW 11 13 6 7 - - -
20/03:30am - - - - - SW 11 11 6 6 - - -
20/03:00am - - - - - SSW 11 13 6 7 - - -
20/02:30am - - - - - SSE 9 11 5 6 - - -
20/02:00am - - - - - E 11 13 6 7 - - -
20/01:30am - - - - - ESE 4 9 2 5 - - -
20/01:00am - - - - - ENE 15 19 8 10 - - -
20/12:30am - - - - - SE 28 35 15 19 - - -
20/12:20am - - - - - SE 22 37 12 20 - - -
20/12:00am - - - - - N 9 11 5 6 - - -
 
Date/Time
EST
Temp
°C
App
Temp
°C
Dew
Point
Rel
Hum
%
Delta-T
°C
Wind Press
QNH
hPa
Press
MSL
hPa
Rain
since 9 am
mm
Dir
 
Spd
km/h
Gust
km/h
Spd
kts
Gust
kts
19/11:30pm - - - - - N 9 11 5 6 - - -
19/11:00pm - - - - - NNE 7 9 4 5 - - -

Other Formats:

Comma delimited format used in spreadsheet applications
http://www.bom.gov.au/fwo/IDQ60801/IDQ60801.99367.axf

JavaScript Object Notation format (JSON) in row-major order
http://www.bom.gov.au/fwo/IDQ60801/IDQ60801.99367.json